Terminal Aerodrome Forecast
Issued by NWS

Home | Current Version | Previous Version | Text Only | Print | Product List | Glossary On
Versions: 1 2 3 4 5 6 7 8 9 10 11 12 13 14 15 16
000
FTUS42 KFFC 241125
TAFRYY
TAF
KRYY 241125Z 2412/2512 13003KT P6SM SCT015 BKN030
      TEMPO 2412/2414 BKN010
     FM241400 15006KT P6SM VCSH SCT025 BKN050
     FM242000 16006KT P6SM SCT050 SCT100
     FM250100 VRB03KT P6SM FEW060 SCT150=

USA.gov is the U.S. government's official web portal to all federal, state and local government web resources and services.